Barth, Germany

3:43 PM CEST on July 14, 2014 (GMT +0200)
IMECKLEN7 Elev 10 ft | 54.44 °N, 12.56 °E | Change Station

Current weather conditions updated 1 minute ago

Mostly Cloudy
Mostly Cloudy
65.7 °F
Feels Like 65.7 °F
N
13.0
Wind Variable Wind from WSW
Gusts 22.0 mph

Today is forecast to be Cooler than yesterday.

Today
High -- | Low -- °F
--% Chance of Precip.
Yesterday
High -- | Low -- °F
Precip. -- in
4:52 AM 9:36 PM
Waning Gibbous, 93% visible
Pressure 29.80 in
Visibility 6.2 miles
Clouds Few 2500 ft
Mostly Cloudy 3400 ft
Dew Point 63 °F
Humidity 92%
Rainfall 0.25 in
Snow Depth Not available.
UV 2.9 out of 12
Pollen Not available.
Air Quality Not available.
Flu Activity Not available.
METAR ETNL 141320Z 25010KT 9999 FEW025 BKN034 20/16 Q1009 BLU BLU TEMPO WHT

More Conditions Fewer Conditions

Pressure 29.80 in
Visibility 6.2 miles
Clouds Few 2500 ft
Mostly Cloudy 3400 ft
Dew Point 63 °F
Humidity 92%
Rainfall 0.25 in
Snow Depth Not available.
UV 2.9 out of 12
Pollen Not available.
Air Quality Not available.
Flu Activity Not available.
METAR ETNL 141320Z 25010KT 9999 FEW025 BKN034 20/16 Q1009 BLU BLU TEMPO WHT

More Conditions Fewer Conditions

10-Day Weather Forecast

Almanac

Astronomy

Jul. 14, 2014 Rise Set
Actual Time 4:52 AM CEST 9:36 PM CEST
Civil Twilight 4:01 AM CEST 10:27 PM CEST
Nautical Twilight 2:35 AM CEST 11:51 PM CEST
Astronomical Twilight Sun does not rise Sun does not rise
Moon 10:16 PM CEST 7:46 AM CEST
Length of Visible Light 18h 25m
Length of Day
16h 43m
Tomorrow will be 2m 28s shorter.
Waning Gibbous, 93% of the Moon is Illuminated
Today
Waning Gibbous
Jul 18
Last Quarter
Jul 26
New
Aug 3
First Quarter
Aug 10
Full

Yesterday's Extremes

Country Highs Country Lows

Community

WunderPhotos

Upload Photos

1,733,656 photos uploaded!

Nearby

Snow Depth

Not available.

Earthquake Activity

City Distance Mag. Time & Date
No recent earthquake activity has been reported nearby.
Minimum magnitude displayed is 2.5.

Coastal Water Temperatures

Place Temperature
No Stations Reporting

Nearby Weather Stations

Station Location Temp. Dew Point Humidity Wind Precip. Elev Updated Type
Ostseebad Prerow 65.7 °F 63 °F 92% WSW  at  13.0 mph 0.00 in / hr 10 ft 3:42 PM CEST Normal
Gelbensande, Gelbensande 68.2 °F 62 °F 81% SSW  at  1.1 mph 0.00 in / hr 58 ft 3:42 PM CEST Rapid Fire
Station Teddy01, Brandshagen 67.1 °F 60 °F 78% WSW  at  9.2 mph 0.00 in / hr 56 ft 3:43 PM CEST Rapid Fire

Show More Stations Show Fewer Stations